Curtis Field
KBBD : now visible

Airfield :











YOU CAN JOIN US ON...

 
LOGIN :

Register | Disclaimer

   EN    FR    IT 

 









Legend :    VFR   Marginal VFR   IFR   Intensive IFR   Very Intensive IFR
Visi :
Ceiling :
>= 8 km
>= 3000ft
5 to 8 km
1000 to 3000 ft
1500m to 5 km
500 to 1000 ft
800 to 1500m
200 to 500 ft
< 800m
< 200 ft
Symbols :   Thunderstorms  Fog  Heavy snow  Heavy precipitations  Wind > 20 kt






- Airport Elevation : 1827 ft


KBBD - Curtis Field

CURRENT METAR :
  • 251935Z AUTO 21008G14KT 190V250 10SM CLR 27/15 A2982 RMK AO2

EXPIRED METARs :
  • 251915Z AUTO 18006G12KT 10SM CLR 27/15 A2984 RMK AO2
  • 251855Z AUTO 21010KT 150V220 10SM CLR 26/15 A2985 RMK AO2
  • 251835Z AUTO 20009G15KT 170V230 10SM CLR 26/15 A2986 RMK AO2
  • 251815Z AUTO 21012G17KT 10SM CLR 25/15 A2987 RMK AO2
  • 251755Z AUTO 21013KT 10SM CLR 25/15 A2988 RMK AO2
  • 251735Z AUTO 21014KT 10SM CLR 23/15 A2989 RMK AO2
  • 251715Z AUTO 20013G19KT 10SM CLR 23/15 A2990 RMK AO2
  • 251655Z AUTO 20012G17KT 10SM CLR 22/15 A2991 RMK AO2

TAF KBBD
Valid from the 25 at 18:00 until the 26 at 18:00 UTC


251745Z 2518/2618 19012G18KT P6SM FEW250
FM260000 11010KT P6SM SCT250
FM260400 10007KT P6SM OVC015
FM260800 09011KT 3SM -RA BR OVC007
KZHU FIR / North America



MET'MAP, your aeronautical weather chart ! - Copyright ORBIFLY December 2007 - Disclaimer

ORBIFLY MET'MAP TEAM :

Programming & Development : Alexandra Zaïnal
Concept & original design : Baudouin d'Aumeries
Assistance for programming : Marc-Olivier Méhu
Technical & hardware support : Manuel Goepfert

Contact : metmap@orbifly.com




SOURCES & CREDITS :

   NOAA       Earth
Advisory